Time;durP1;ratioP1;P1;durP2;ratioP2;P2;SDS_P1;SDS_P2;PMS_P1;PMS_P2;Temp;Humidity;BMP_temperature;BMP_pressure;BME280_temperature;BME280_humidity;BME280_pressure;Samples;Min_cycle;Max_cycle;Signal;HPM_P1;HPM_P2
2021/03/12 00:01:28;;;;;;;3.88;1.13;;;9.20;78.20;;;8.87;66.38;99228.66;5023216;28;20040;-86
2021/03/12 00:03:55;;;;;;;5.78;1.42;;;9.20;78.00;;;8.92;66.61;99252.44;5024347;28;20049;-85
2021/03/12 00:06:26;;;;;;;8.35;1.30;;;9.20;78.60;;;8.84;66.17;99244.50;5022588;28;20056;-86
2021/03/12 00:08:55;;;;;;;;;;;9.10;78.00;;;8.86;66.96;99254.09;5023248;28;20053;-85
2021/03/12 00:11:22;;;;;;;5.45;1.38;;;9.10;78.60;;;8.88;66.61;99253.91;5023091;28;19972;-86
2021/03/12 00:13:50;;;;;;;6.00;1.30;;;9.10;78.40;;;8.85;66.17;99252.41;5022760;28;20038;-86
2021/03/12 00:16:36;;;;;;;4.28;1.40;;;9.10;78.40;;;8.77;66.96;99261.56;5022451;28;20227;-86
2021/03/12 00:19:03;;;;;;;4.93;1.60;;;9.10;78.70;;;8.81;67.09;99253.88;5022282;28;20077;-86
2021/03/12 00:21:33;;;;;;;5.00;1.40;;;9.00;78.80;;;8.84;66.94;99253.47;5022724;28;20071;-86
2021/03/12 00:24:01;;;;;;;9.25;1.52;;;9.00;79.20;;;8.86;66.76;99258.69;5022108;28;20056;-86
2021/03/12 00:26:28;;;;;;;10.15;1.65;;;9.00;79.30;;;8.85;66.76;99267.88;5022362;28;20132;-86
2021/03/12 00:28:55;;;;;;;6.35;1.60;;;9.00;79.60;;;8.84;67.08;99275.19;5022424;28;20500;-86
2021/03/12 00:31:22;;;;;;;7.88;1.65;;;8.90;79.70;;;8.89;67.20;99279.97;5023045;28;20041;-86
2021/03/12 00:33:50;;;;;;;8.98;1.98;;;8.90;79.90;;;8.88;67.56;99284.56;5038983;28;20068;-86
2021/03/12 00:36:17;;;;;;;12.10;2.30;;;8.90;80.30;;;8.88;67.32;99284.56;5038821;28;20049;-86
2021/03/12 00:38:44;;;;;;;7.45;1.42;;;8.90;80.50;;;8.87;67.15;99293.78;5022379;28;20041;-85
2021/03/12 00:41:11;;;;;;;8.98;1.90;;;8.90;80.30;;;8.92;67.49;99299.41;5022623;28;20538;-85
2021/03/12 00:44:01;;;;;;;8.25;1.50;;;8.80;80.60;;;8.89;67.17;99302.53;5023467;28;20547;-85
2021/03/12 00:46:49;;;;;;;8.00;1.70;;;8.80;80.90;;;8.82;67.97;99307.09;5023173;28;20053;-86
2021/03/12 00:49:17;;;;;;;11.43;1.70;;;8.90;80.80;;;8.82;67.84;99311.69;5022487;28;20072;-85
2021/03/12 00:51:48;;;;;;;9.15;1.80;;;8.80;80.80;;;8.82;68.42;99312.53;5022226;28;20049;-86
2021/03/12 00:54:19;;;;;;;6.38;1.52;;;8.80;81.00;;;8.79;68.27;99326.47;5022308;28;20125;-84
2021/03/12 00:56:55;;;;;;;9.77;2.00;;;8.90;81.00;;;8.78;68.31;99332.97;5021626;28;20052;-86
2021/03/12 00:59:23;;;;;;;9.00;1.88;;;8.80;81.30;;;8.80;67.85;99337.13;5022213;28;20041;-86
2021/03/12 01:01:55;;;;;;;;;;;8.80;81.30;;;8.71;68.17;99342.94;5022759;28;20045;-86
2021/03/12 01:04:23;;;;;;;6.40;1.67;;;8.80;81.10;;;8.78;67.97;99338.38;5021647;28;20144;-86
2021/03/12 01:06:59;;;;;;;14.20;1.92;;;8.80;81.10;;;8.79;67.69;99343.59;5021393;28;20091;-86
2021/03/12 01:09:25;;;;;;;8.95;1.73;;;8.80;81.10;;;8.76;67.92;99344.00;5022248;28;20865;-87
2021/03/12 01:11:53;;;;;;;6.53;1.60;;;8.80;80.90;;;8.71;67.90;99349.19;5021533;28;20045;-86
2021/03/12 01:14:20;;;;;;;8.95;1.90;;;8.80;81.10;;;8.71;68.20;99340.22;5018958;28;20058;-86
2021/03/12 01:16:50;;;;;;;11.98;1.90;;;8.80;81.10;;;8.76;68.60;99354.03;5052338;28;20440;-86
2021/03/12 01:19:18;;;;;;;14.13;2.55;;;8.80;81.00;;;8.64;68.67;99358.34;5022025;28;20076;-86
2021/03/12 01:21:48;;;;;;;11.95;2.00;;;8.80;81.10;;;8.68;68.56;99351.47;5038238;28;20037;-85
2021/03/12 01:24:16;;;;;;;9.32;2.10;;;8.80;81.60;;;8.75;68.44;99355.06;5023368;28;20050;-86
2021/03/12 01:26:52;;;;;;;9.43;1.80;;;8.70;81.50;;;8.72;68.82;99360.88;5021481;28;20846;-86
2021/03/12 01:29:20;;;;;;;10.88;2.25;;;8.70;81.70;;;8.77;68.52;99358.41;5022440;28;20046;-86
2021/03/12 01:31:54;;;;;;;10.23;2.20;;;8.70;81.50;;;8.71;68.34;99353.78;5022077;28;20050;-87
2021/03/12 01:34:25;;;;;;;11.70;2.67;;;8.80;81.50;;;8.68;68.21;99365.03;5022192;28;20439;-86
2021/03/12 01:36:54;;;;;;;8.95;1.88;;;8.70;81.60;;;8.66;68.56;99361.69;5020977;28;20096;-86
2021/03/12 01:39:21;;;;;;;12.20;2.40;;;8.70;81.50;;;8.68;68.03;99365.03;5021771;28;20500;-86
2021/03/12 01:41:51;;;;;;;15.43;2.58;;;8.70;81.20;;;8.62;68.84;99372.09;5021479;28;20049;-86
2021/03/12 01:44:34;;;;;;;14.98;3.05;;;8.70;81.50;;;8.66;68.10;99380.66;5021905;28;20500;-87
2021/03/12 01:47:01;;;;;;;16.60;3.25;;;8.60;81.50;;;8.63;68.22;99392.75;5021408;28;20443;-86
2021/03/12 01:49:29;;;;;;;13.57;3.40;;;8.60;81.20;;;8.61;68.05;99392.13;5021873;28;20045;-86
2021/03/12 01:51:57;;;;;;;9.88;3.97;;;8.60;80.90;;;8.60;67.80;99402.16;5021422;28;20068;-86
2021/03/12 01:54:24;;;;;;;13.63;4.10;;;8.60;81.30;;;8.58;68.17;99396.06;5022987;28;20041;-86
2021/03/12 01:57:01;;;;;;;14.82;4.13;;;8.60;81.60;;;8.59;68.52;99405.88;5023131;28;20102;-86
2021/03/12 01:59:45;;;;;;;12.05;3.58;;;8.60;81.60;;;8.65;68.36;99400.72;5025407;28;20045;-84
2021/03/12 02:02:25;;;;;;;13.25;4.07;;;8.60;81.80;;;8.58;67.89;99409.63;5025633;28;20072;-86
2021/03/12 02:05:02;;;;;;;12.35;3.53;;;8.70;81.50;;;8.61;68.52;99406.53;5025069;28;20071;-86
2021/03/12 02:07:46;;;;;;;12.82;3.35;;;8.70;81.40;;;8.65;68.42;99415.09;5025083;28;20463;-86
2021/03/12 02:10:45;;;;;;;12.18;3.22;;;8.70;81.80;;;8.54;68.88;99412.94;5024296;28;20148;-86
2021/03/12 02:13:41;;;;;;;;;;;8.70;81.80;;;8.53;68.84;99428.38;5025745;28;20508;-86
2021/03/12 02:16:16;;;;;;;14.30;3.63;;;8.70;81.60;;;8.61;68.67;99422.78;5022275;28;20371;-85
2021/03/12 02:19:00;;;;;;;14.77;4.13;;;8.60;81.70;;;8.61;68.40;99417.38;5026065;28;20042;-86
2021/03/12 02:21:36;;;;;;;14.85;3.63;;;8.60;81.60;;;8.61;68.46;99422.78;5008677;28;20136;-86
2021/03/12 02:24:13;;;;;;;16.05;4.28;;;8.60;81.60;;;8.58;68.34;99425.88;5024826;28;20572;-85
2021/03/12 02:27:07;;;;;;;12.35;3.08;;;8.60;81.80;;;8.60;68.43;99414.84;5024735;28;20045;-86
2021/03/12 02:29:44;;;;;;;10.30;3.13;;;8.60;82.20;;;8.61;68.15;99421.97;5020815;28;20073;-86
2021/03/12 02:32:17;;;;;;;11.30;3.08;;;8.60;82.00;;;8.48;68.53;99433.56;5025206;28;20053;-86
2021/03/12 02:34:48;;;;;;;11.00;3.47;;;8.60;81.70;;;8.54;68.88;99432.75;5024464;28;20049;-85
2021/03/12 02:37:21;;;;;;;11.68;2.50;;;8.60;81.60;;;8.53;67.96;99446.50;5024575;28;20041;-86
2021/03/12 02:39:56;;;;;;;13.30;3.95;;;8.60;81.40;;;8.53;68.68;99443.78;5024638;28;20049;-86
2021/03/12 02:42:29;;;;;;;12.02;2.95;;;8.60;81.50;;;8.57;68.46;99451.34;5024469;28;20046;-85
2021/03/12 02:45:01;;;;;;;13.68;3.38;;;8.60;81.50;;;8.58;68.64;99449.47;5024034;28;20060;-86
2021/03/12 02:47:31;;;;;;;13.40;3.47;;;8.60;82.00;;;8.56;69.19;99460.50;5024387;28;20488;-84
2021/03/12 02:50:09;;;;;;;12.38;3.25;;;8.60;82.20;;;8.54;70.07;99469.88;5024081;28;20103;-85
2021/03/12 02:52:37;;;;;;;12.77;3.28;;;8.60;83.00;;;8.48;70.00;99468.78;5024260;28;20172;-85
2021/03/12 02:55:08;;;;;;;12.75;3.58;;;8.50;83.30;;;8.52;70.12;99477.38;5024199;28;20519;-85
2021/03/12 02:58:00;;;;;;;11.65;3.30;;;8.50;83.70;;;8.53;69.84;99481.75;5021467;28;20233;-85
2021/03/12 03:00:28;;;;;;;15.77;3.53;;;8.50;84.10;;;8.50;70.12;99480.28;5025354;28;20172;-85
2021/03/12 03:03:19;;;;;;;13.90;3.83;;;8.40;84.00;;;8.46;69.85;99481.72;5034413;28;20062;-85
2021/03/12 03:06:08;;;;;;;13.80;3.88;;;8.40;83.60;;;8.41;69.54;99473.28;5027695;28;20059;-87
2021/03/12 03:08:39;;;;;;;13.25;3.47;;;8.40;82.60;;;8.36;68.67;99483.91;5024921;28;20053;-85
2021/03/12 03:11:09;;;;;;;14.70;3.60;;;8.40;81.80;;;8.39;68.16;99489.75;5024615;28;20042;-86
2021/03/12 03:13:40;;;;;;;16.85;3.55;;;8.40;81.30;;;8.41;67.56;99494.97;5024435;28;20045;-86
2021/03/12 03:16:12;;;;;;;7.65;3.22;;;8.40;81.00;;;8.25;67.73;99500.69;5041262;28;20053;-86
2021/03/12 03:18:41;;;;;;;12.07;3.38;;;8.40;80.70;;;8.32;67.26;99501.56;5008221;28;20049;-86
2021/03/12 03:21:09;;;;;;;12.30;3.40;;;8.50;80.70;;;8.31;67.38;99505.34;5024512;28;20115;-86
2021/03/12 03:23:41;;;;;;;13.23;3.20;;;8.40;80.00;;;8.41;67.34;99505.81;5024508;28;20123;-86
2021/03/12 03:26:07;;;;;;;;;;;8.40;80.40;;;8.27;65.74;99510.31;5024443;28;20064;-86
2021/03/12 03:28:39;;;;;;;11.07;3.47;;;8.40;78.80;;;8.20;65.82;99502.09;5023815;28;19940;-86
2021/03/12 03:31:06;;;;;;;13.10;3.15;;;8.50;79.30;;;8.26;66.43;99511.31;5023936;28;20045;-86
2021/03/12 03:33:34;;;;;;;10.05;2.88;;;8.40;79.80;;;8.29;67.07;99507.41;5024159;28;20041;-85
2021/03/12 03:36:04;;;;;;;11.43;3.10;;;8.40;79.40;;;8.29;66.21;99515.53;5023889;28;20091;-85
2021/03/12 03:38:32;;;;;;;15.85;3.05;;;8.40;79.00;;;8.35;66.17;99514.75;5024287;28;20552;-85
2021/03/12 03:41:06;;;;;;;15.25;3.33;;;8.40;79.60;;;8.33;65.94;99516.81;5024354;28;20124;-85
2021/03/12 03:43:38;;;;;;;8.80;2.45;;;8.40;79.30;;;8.20;65.98;99522.94;5024218;28;20049;-86
2021/03/12 03:46:10;;;;;;;15.77;3.90;;;8.40;78.80;;;8.23;66.00;99517.97;5007999;28;20064;-86
2021/03/12 03:48:42;;;;;;;9.10;2.88;;;8.40;78.80;;;8.31;65.80;99535.16;5024244;28;20527;-87
2021/03/12 03:51:15;;;;;;;13.27;3.33;;;8.40;78.90;;;8.27;65.64;99531.97;5040838;28;20887;-87
2021/03/12 03:53:46;;;;;;;18.50;3.13;;;8.40;78.60;;;8.17;65.65;99536.91;5040737;28;20045;-86
2021/03/12 03:56:17;;;;;;;8.18;2.60;;;8.40;77.90;;;8.23;65.49;99550.50;5023682;28;20050;-85
2021/03/12 03:58:48;;;;;;;10.57;2.97;;;8.40;78.40;;;8.30;65.55;99539.75;5023800;28;20045;-86
2021/03/12 04:01:18;;;;;;;14.55;3.63;;;8.40;78.20;;;8.31;65.40;99546.81;5023942;28;20037;-86
2021/03/12 04:03:53;;;;;;;13.40;3.35;;;8.40;78.00;;;8.30;65.24;99549.72;5023774;28;20069;-86
2021/03/12 04:06:20;;;;;;;15.30;4.00;;;8.40;77.90;;;8.22;65.83;99559.69;5023064;28;20543;-86
2021/03/12 04:08:49;;;;;;;12.30;3.97;;;8.40;78.00;;;8.27;65.36;99558.25;5022182;28;20053;-87
2021/03/12 04:11:17;;;;;;;11.85;3.40;;;8.40;77.70;;;8.17;64.96;99554.00;5023048;28;20048;-86
2021/03/12 04:13:49;;;;;;;10.93;3.22;;;8.50;76.80;;;8.23;65.42;99564.06;5022495;28;20052;-85
2021/03/12 04:16:20;;;;;;;13.77;4.13;;;8.40;77.50;;;8.29;65.02;99561.63;5022135;28;20520;-85
2021/03/12 04:18:48;;;;;;;15.50;3.42;;;8.40;77.50;;;8.32;64.70;99562.06;5022219;28;20048;-87
2021/03/12 04:21:17;;;;;;;11.77;3.40;;;8.40;77.40;;;8.23;64.31;99569.47;5023289;28;20050;-85
2021/03/12 04:23:47;;;;;;;10.45;3.22;;;8.40;77.10;;;8.25;64.29;99565.75;5022394;28;20076;-86
2021/03/12 04:26:15;;;;;;;10.30;3.15;;;8.40;76.90;;;8.25;63.83;99579.31;5022664;28;20041;-86
2021/03/12 04:28:42;;;;;;;13.43;3.72;;;8.50;76.90;;;8.24;64.93;99581.16;5022623;28;20095;-85
2021/03/12 04:31:11;;;;;;;14.73;3.97;;;8.40;77.50;;;8.27;64.15;99588.91;5022599;28;20823;-86
2021/03/12 04:33:40;;;;;;;16.05;3.85;;;8.40;76.60;;;8.34;64.74;99588.97;5022823;28;20512;-86
2021/03/12 04:36:08;;;;;;;11.20;3.45;;;8.40;77.60;;;8.31;64.73;99575.81;5021786;28;20563;-86
2021/03/12 04:38:37;;;;;;;12.77;3.90;;;8.40;77.80;;;8.28;64.16;99587.03;5022672;28;20045;-85
2021/03/12 04:41:05;;;;;;;15.00;4.35;;;8.40;77.30;;;8.25;64.06;99593.69;5022184;28;20946;-85
2021/03/12 04:43:33;;;;;;;16.15;3.75;;;8.40;76.60;;;8.16;64.84;99595.66;5022506;28;20076;-85
2021/03/12 04:46:02;;;;;;;12.95;3.83;;;8.40;76.70;;;8.11;64.23;99611.69;5021942;28;20049;-86
2021/03/12 04:48:35;;;;;;;13.70;3.65;;;8.40;76.50;;;8.13;64.83;99606.91;5022087;28;20049;-86
2021/03/12 04:51:06;;;;;;;16.20;4.30;;;8.40;76.70;;;8.17;64.30;99597.34;5022202;28;20042;-87
2021/03/12 04:53:34;;;;;;;14.70;4.28;;;8.40;76.90;;;8.18;64.43;99606.31;5006144;28;20057;-86
2021/03/12 04:56:02;;;;;;;13.95;3.75;;;8.40;76.50;;;8.19;65.32;99611.56;5021797;28;20682;-86
2021/03/12 04:58:33;;;;;;;12.43;3.90;;;8.40;77.20;;;8.26;65.15;99621.63;5022156;28;20132;-85
2021/03/12 05:01:00;;;;;;;13.43;4.38;;;8.30;77.90;;;8.24;64.72;99613.69;5022099;28;20103;-86
2021/03/12 05:03:30;;;;;;;17.35;4.00;;;8.40;77.50;;;8.17;63.91;99619.03;5022453;28;20069;-86
2021/03/12 05:05:58;;;;;;;12.88;3.67;;;8.40;76.70;;;8.14;65.07;99622.13;5021524;28;20144;-84
2021/03/12 05:08:26;;;;;;;12.23;3.60;;;8.40;76.90;;;8.19;64.88;99616.97;5022347;28;20045;-85
2021/03/12 05:11:23;;;;;;;13.30;3.70;;;8.40;77.50;;;8.05;64.19;99620.56;5022557;28;20207;-86
2021/03/12 05:14:00;;;;;;;9.85;3.33;;;8.40;76.20;;;8.05;64.70;99635.97;5022718;28;20045;-86
2021/03/12 05:16:34;;;;;;;10.73;3.78;;;8.40;76.60;;;8.08;64.71;99631.03;5022272;28;20085;-87
2021/03/12 05:19:03;;;;;;;13.00;3.45;;;8.30;77.00;;;8.15;64.67;99636.53;5022027;28;20057;-87
2021/03/12 05:21:31;;;;;;;12.23;3.25;;;8.30;76.80;;;8.14;64.58;99635.66;5022227;28;20139;-86
2021/03/12 05:24:00;;;;;;;16.70;3.85;;;8.30;77.30;;;8.21;64.53;99628.47;5022178;28;20107;-86
2021/03/12 05:26:28;;;;;;;15.13;3.20;;;8.30;77.00;;;8.23;63.88;99636.41;5038937;28;20042;-88
2021/03/12 05:41:56;;;;;;;13.32;3.75;;;8.20;77.10;;;8.00;64.08;99647.41;4953045;28;20200;-88
2021/03/12 05:44:33;;;;;;;13.38;3.13;;;8.20;76.80;;;8.07;64.72;99640.16;4956973;28;20051;-87
2021/03/12 05:47:06;;;;;;;10.45;2.58;;;8.10;77.40;;;8.09;64.01;99642.69;4949583;28;20066;-87
2021/03/12 05:49:34;;;;;;;13.88;3.15;;;8.10;77.40;;;8.02;63.45;99640.75;4949378;28;20043;-88
2021/03/12 05:52:02;;;;;;;17.52;3.15;;;8.10;77.00;;;7.99;64.30;99648.41;4949703;28;20510;-87
2021/03/12 05:54:29;;;;;;;14.93;3.10;;;8.00;77.30;;;8.05;63.73;99641.41;4949821;28;20059;-89
2021/03/12 05:56:59;;;;;;;16.17;3.40;;;8.00;77.20;;;8.06;63.89;99653.94;4949063;28;20476;-88
2021/03/12 06:03:30;;;;;;;11.80;2.83;;;7.80;77.20;;;8.10;63.20;99647.94;4861758;29;20067;-85
2021/03/12 06:05:57;;;;;;;16.63;3.35;;;7.80;77.70;;;8.09;63.50;99651.69;4937050;28;20135;-86
2021/03/12 06:08:26;;;;;;;13.02;2.65;;;7.80;77.80;;;8.05;64.12;99644.94;4935042;28;20073;-86
2021/03/12 06:10:54;;;;;;;14.48;3.00;;;7.70;78.10;;;8.01;63.61;99654.47;4951433;28;20082;-86
2021/03/12 06:13:53;;;;;;;11.77;2.45;;;7.70;78.40;;;8.01;64.07;99657.19;4993055;28;20054;-86
2021/03/12 06:16:49;;;;;;;11.05;2.85;;;7.80;78.50;;;8.03;64.13;99656.00;5023276;28;20057;-87
2021/03/12 06:19:32;;;;;;;11.15;2.67;;;7.80;78.50;;;8.06;64.59;99648.50;5025272;28;20146;-85
2021/03/12 06:22:22;;;;;;;13.60;2.50;;;7.80;78.70;;;8.02;64.11;99653.47;5026674;28;20099;-86
2021/03/12 06:24:59;;;;;;;11.52;2.17;;;7.80;78.60;;;7.96;64.38;99654.22;5021273;28;20049;-86
2021/03/12 06:27:34;;;;;;;;;;;7.80;78.60;;;8.00;64.90;99655.53;5044068;28;20108;-86
2021/03/12 06:30:22;;;;;;;13.13;2.45;;;7.80;78.60;;;8.05;65.16;99654.94;5024518;28;20751;-86
2021/03/12 06:33:30;;;;;;;11.80;2.67;;;7.80;79.10;;;8.02;64.97;99653.47;4966744;28;20522;-86
2021/03/12 06:36:30;;;;;;;12.10;2.70;;;7.90;79.10;;;7.96;65.37;99655.06;5027772;28;20128;-86
2021/03/12 06:39:17;;;;;;;16.35;2.83;;;8.00;79.00;;;8.00;64.98;99660.94;5025911;28;20149;-86
2021/03/12 06:41:50;;;;;;;14.40;2.72;;;8.00;78.70;;;8.05;65.54;99663.91;5026315;28;20107;-86
2021/03/12 06:44:32;;;;;;;11.50;2.60;;;8.00;78.90;;;8.08;65.17;99647.28;5026417;28;20045;-86
2021/03/12 06:47:03;;;;;;;17.17;3.10;;;8.00;78.50;;;8.07;65.24;99659.13;5026624;28;20073;-85
2021/03/12 06:49:31;;;;;;;11.48;3.20;;;8.00;78.80;;;8.02;65.51;99656.16;5026630;28;20129;-85
2021/03/12 06:52:32;;;;;;;16.58;3.28;;;8.10;79.40;;;8.08;65.91;99660.81;5028016;28;20045;-85
2021/03/12 06:55:00;;;;;;;16.33;3.50;;;8.10;79.20;;;8.05;66.00;99663.91;5026458;28;20140;-84
2021/03/12 06:57:46;;;;;;;19.05;3.75;;;8.10;79.10;;;8.11;66.10;99668.59;5026880;28;20041;-85
2021/03/12 07:00:31;;;;;;;13.15;2.95;;;8.20;79.20;;;8.14;66.43;99668.19;5026190;28;20049;-85
2021/03/12 07:03:00;;;;;;;14.63;2.83;;;8.30;79.50;;;8.17;66.28;99662.41;5026498;28;20061;-85
2021/03/12 07:06:04;;;;;;;19.83;3.88;;;8.30;79.20;;;8.16;65.73;99678.84;5059645;28;20061;-86
2021/03/12 07:08:40;;;;;;;18.13;3.95;;;8.40;79.10;;;8.15;67.42;99682.59;5026014;28;20107;-86
2021/03/12 07:11:28;;;;;;;14.93;3.20;;;8.40;79.10;;;8.17;66.61;99681.38;5015849;28;20081;-85
2021/03/12 07:14:34;;;;;;;19.77;3.53;;;8.50;79.10;;;8.20;66.83;99694.53;5027216;28;20047;-85
2021/03/12 07:17:13;;;;;;;23.13;3.92;;;8.50;78.90;;;8.19;66.62;99692.88;5024301;28;20049;-87
2021/03/12 07:19:43;;;;;;;18.45;3.20;;;8.50;78.90;;;8.16;66.67;99687.81;5024722;28;20060;-86
2021/03/12 07:22:12;;;;;;;14.93;3.47;;;8.60;78.50;;;8.20;66.86;99696.41;5025431;28;20080;-84
2021/03/12 07:24:42;;;;;;;18.33;4.00;;;8.60;78.40;;;8.26;66.97;99706.47;5042669;28;20069;-84
2021/03/12 07:27:11;;;;;;;18.20;3.42;;;8.60;78.40;;;8.17;66.74;99700.34;5042384;28;20509;-85
2021/03/12 07:30:02;;;;;;;15.55;3.33;;;8.60;78.10;;;8.09;66.74;99714.00;5025683;28;20045;-86
2021/03/12 07:32:38;;;;;;;18.55;3.35;;;8.70;77.80;;;8.10;67.04;99712.97;5025304;28;20523;-85
2021/03/12 07:35:09;;;;;;;17.40;3.65;;;8.70;78.00;;;8.20;67.29;99710.78;5026165;28;21010;-88
2021/03/12 07:37:59;;;;;;;21.23;4.18;;;8.70;78.20;;;8.28;66.89;99714.44;5006649;28;20140;-88
2021/03/12 07:40:31;;;;;;;16.88;3.58;;;8.70;78.20;;;8.27;66.98;99720.91;4989549;28;20169;-88
2021/03/12 07:43:09;;;;;;;18.38;3.83;;;8.70;78.00;;;8.18;67.33;99729.13;5006046;28;20141;-87
2021/03/12 07:46:09;;;;;;;14.55;3.33;;;8.80;77.90;;;8.22;66.91;99719.59;4983695;28;20073;-87
2021/03/12 07:48:54;;;;;;;15.95;3.20;;;8.80;77.60;;;8.34;66.93;99719.94;5009559;28;20049;-88
2021/03/12 07:51:47;;;;;;;13.57;2.95;;;8.80;77.80;;;8.38;66.56;99723.13;5025821;28;20591;-86
2021/03/12 07:54:46;;;;;;;22.70;3.25;;;8.90;78.30;;;8.37;67.00;99724.16;5025419;28;20046;-88
2021/03/12 07:57:41;;;;;;;18.17;3.10;;;8.90;77.90;;;8.41;66.80;99729.03;5027133;28;20042;-88
2021/03/12 08:00:28;;;;;;;16.05;3.47;;;9.00;77.40;;;8.39;66.48;99732.94;5025653;28;20152;-87
2021/03/12 08:03:29;;;;;;;14.85;3.45;;;9.00;77.60;;;8.41;66.13;99728.16;5042232;28;20900;-85
2021/03/12 08:06:36;;;;;;;16.75;3.00;;;9.10;77.40;;;8.42;66.23;99721.75;5019768;28;20424;-84
2021/03/12 08:09:32;;;;;;;16.55;3.33;;;9.10;77.40;;;8.40;66.61;99723.78;5025807;28;20515;-85
2021/03/12 08:12:31;;;;;;;17.92;3.30;;;9.10;76.90;;;8.38;66.86;99723.13;5020861;28;20049;-85
2021/03/12 08:15:30;;;;;;;15.45;3.42;;;9.20;76.70;;;8.49;66.70;99733.53;5025330;28;20516;-84
2021/03/12 08:18:38;;;;;;;18.88;3.20;;;9.20;77.10;;;8.49;66.92;99741.66;5022281;28;20156;-85
2021/03/12 08:21:36;;;;;;;19.83;3.63;;;9.20;77.20;;;8.50;66.70;99731.63;5024937;28;20045;-85
2021/03/12 08:24:53;;;;;;;16.75;3.30;;;9.20;77.10;;;8.52;66.50;99724.97;5025807;28;20067;-84
2021/03/12 08:27:47;;;;;;;15.65;2.70;;;9.20;76.90;;;8.46;67.58;99742.03;4966841;28;20798;-84
2021/03/12 08:31:00;;;;;;;17.40;3.60;;;9.30;77.10;;;8.43;67.37;99730.72;5024152;28;20096;-84
2021/03/12 08:34:38;;;;;;;16.30;3.55;;;9.40;76.60;;;8.58;66.90;99737.78;5003231;28;20054;-84
2021/03/12 08:37:49;;;;;;;20.48;3.28;;;9.40;76.50;;;8.52;67.34;99732.28;4964284;28;20062;-85
2021/03/12 08:40:31;;;;;;;18.60;3.35;;;9.60;76.30;;;8.54;67.36;99728.34;5012715;28;20057;-84
2021/03/12 08:43:33;;;;;;;17.40;2.88;;;9.60;75.90;;;8.58;67.37;99717.97;5025377;28;20583;-84
2021/03/12 08:46:31;;;;;;;15.85;2.97;;;9.70;75.80;;;8.63;67.46;99715.50;5027606;28;20054;-83
2021/03/12 08:49:06;;;;;;;10.52;2.42;;;9.80;75.60;;;8.66;67.36;99714.28;5024753;28;20390;-84
2021/03/12 08:51:33;;;;;;;23.95;3.78;;;9.90;75.30;;;8.71;67.01;99712.69;5008437;28;20094;-84
2021/03/12 08:54:14;;;;;;;19.00;3.53;;;9.90;75.50;;;8.74;66.77;99711.47;5024620;28;20480;-84
2021/03/12 08:56:49;;;;;;;17.38;3.70;;;10.00;75.10;;;8.71;66.53;99711.84;5023906;28;20412;-85
2021/03/12 08:59:26;;;;;;;18.45;4.00;;;10.00;74.70;;;8.80;67.33;99714.25;5040607;28;20072;-84
2021/03/12 09:02:03;;;;;;;15.70;3.53;;;10.00;74.70;;;8.80;66.41;99710.69;5024445;28;20056;-84
2021/03/12 09:04:41;;;;;;;18.70;3.45;;;10.00;74.20;;;8.81;66.43;99715.06;5023844;28;20053;-84
2021/03/12 09:07:51;;;;;;;22.10;3.30;;;10.00;74.50;;;8.85;66.90;99710.94;5016548;28;20492;-83
2021/03/12 09:10:29;;;;;;;18.52;3.45;;;10.00;75.00;;;8.92;66.74;99711.84;5023984;28;20053;-83
2021/03/12 09:13:22;;;;;;;18.85;3.78;;;10.00;74.70;;;8.94;66.71;99707.06;5024543;28;20132;-84
2021/03/12 09:15:51;;;;;;;20.17;3.72;;;10.00;75.10;;;8.94;66.73;99717.91;5023777;28;20084;-84
2021/03/12 09:18:24;;;;;;;19.67;3.78;;;10.00;74.80;;;8.98;66.74;99711.06;5024264;28;20053;-84
2021/03/12 09:20:53;;;;;;;18.75;4.05;;;10.10;75.00;;;8.96;66.97;99710.41;5024021;28;20050;-85
2021/03/12 09:23:34;;;;;;;;;;;10.10;74.60;;;9.03;66.23;99706.94;5024678;28;20467;-84
2021/03/12 09:26:01;;;;;;;18.65;3.38;;;10.20;74.70;;;9.02;66.92;99699.81;5023406;28;20064;-85
2021/03/12 09:28:31;;;;;;;15.95;3.40;;;10.30;74.30;;;9.07;66.26;99697.38;5024479;28;20412;-84
2021/03/12 09:31:08;;;;;;;16.75;3.92;;;10.40;73.70;;;9.02;66.12;99694.41;5004705;28;20112;-84
2021/03/12 09:34:00;;;;;;;18.10;3.17;;;10.40;73.40;;;9.02;65.76;99695.22;5005870;28;20081;-84
2021/03/12 09:36:38;;;;;;;13.52;3.03;;;10.50;73.20;;;9.05;66.47;99702.16;5004145;28;20579;-84
2021/03/12 09:39:26;;;;;;;16.83;2.72;;;10.50;73.50;;;9.06;65.19;99701.13;5001781;28;20137;-85
2021/03/12 09:42:00;;;;;;;18.00;3.05;;;10.50;72.40;;;9.12;65.46;99700.31;5009723;28;20136;-85
2021/03/12 09:44:31;;;;;;;16.55;3.05;;;10.60;72.90;;;9.12;65.14;99697.63;5023917;28;20045;-85
2021/03/12 09:47:10;;;;;;;14.88;2.88;;;10.60;72.10;;;9.18;66.36;99691.44;5023325;28;20052;-85
2021/03/12 09:49:47;;;;;;;19.92;3.13;;;10.60;72.90;;;9.18;65.68;99686.00;5057853;28;20587;-85
2021/03/12 09:52:21;;;;;;;14.30;2.75;;;10.60;71.90;;;9.21;65.63;99688.31;5029222;28;20671;-84
2021/03/12 09:55:10;;;;;;;16.10;2.80;;;10.60;72.60;;;9.23;64.96;99688.94;5037568;28;20050;-84
2021/03/12 09:57:41;;;;;;;16.75;3.15;;;10.60;72.40;;;9.23;64.90;99688.94;5023791;28;20045;-84
2021/03/12 10:00:23;;;;;;;16.02;3.30;;;10.60;72.10;;;9.22;65.04;99678.31;5023998;28;20133;-84
2021/03/12 10:02:57;;;;;;;14.80;2.92;;;10.60;72.00;;;9.28;65.79;99681.06;5027957;28;20041;-84
2021/03/12 10:05:37;;;;;;;14.52;2.60;;;10.60;73.10;;;9.35;65.86;99681.13;5042670;28;20056;-84
2021/03/12 10:08:27;;;;;;;24.65;3.03;;;10.70;72.50;;;9.33;64.81;99675.06;5040484;28;20084;-84
2021/03/12 10:11:53;;;;;;;17.67;3.03;;;10.80;71.10;;;9.38;65.41;99670.69;5022159;28;20061;-84
2021/03/12 10:14:43;;;;;;;28.17;3.72;;;10.90;71.40;;;9.36;64.66;99672.75;5062593;28;20041;-84
2021/03/12 10:17:27;;;;;;;16.83;2.70;;;11.00;70.60;;;9.37;64.30;99663.59;5027095;28;20049;-84
2021/03/12 10:19:57;;;;;;;;;;;11.00;70.20;;;9.41;63.66;99657.78;5010218;28;20571;-84
2021/03/12 10:22:27;;;;;;;17.20;2.90;;;11.00;70.10;;;9.43;63.75;99661.13;5027076;28;19932;-84
2021/03/12 10:25:12;;;;;;;19.02;3.05;;;11.00;70.20;;;9.46;64.09;99660.72;5028145;28;20045;-83
2021/03/12 10:27:45;;;;;;;26.33;3.70;;;11.00;70.40;;;9.45;62.83;99664.47;5025969;28;20087;-87
2021/03/12 10:30:14;;;;;;;14.55;2.75;;;11.00;69.70;;;9.45;63.28;99659.88;5027085;28;20076;-87
2021/03/12 10:32:45;;;;;;;21.42;3.60;;;10.90;69.60;;;9.48;63.68;99664.06;5028597;28;20535;-87
2021/03/12 10:35:35;;;;;;;13.93;3.10;;;10.80;70.30;;;9.48;63.19;99647.75;5028507;28;20045;-88
2021/03/12 10:38:15;;;;;;;18.00;2.75;;;10.80;69.50;;;9.45;63.86;99648.19;5025806;28;20148;-88
2021/03/12 10:40:44;;;;;;;16.27;2.45;;;10.80;70.20;;;9.47;63.55;99655.09;5043472;28;20094;-89
2021/03/12 10:43:16;;;;;;;19.02;3.22;;;10.90;70.60;;;9.49;63.21;99657.59;5028413;28;20630;-88
2021/03/12 10:45:46;;;;;;;20.38;3.13;;;11.00;69.80;;;9.53;63.93;99626.28;5043153;28;20049;-88
2021/03/12 10:48:16;;;;;;;14.77;2.70;;;11.00;70.60;;;9.57;63.38;99641.13;5027867;28;20455;-87
2021/03/12 10:50:51;;;;;;;15.60;2.42;;;11.00;70.10;;;9.51;62.49;99620.22;5028117;28;20050;-88
2021/03/12 10:53:18;;;;;;;16.80;2.60;;;10.90;69.70;;;9.45;62.14;99631.88;5028141;28;20076;-87
2021/03/12 10:55:48;;;;;;;15.50;2.70;;;10.90;69.60;;;9.49;62.41;99622.28;5026404;28;20103;-88
2021/03/12 10:58:27;;;;;;;17.05;2.38;;;10.90;69.50;;;9.51;62.50;99612.06;5043483;28;20386;-87
2021/03/12 11:01:10;;;;;;;15.85;2.78;;;10.90;70.10;;;9.44;62.42;99619.34;5027214;28;20556;-87
2021/03/12 11:03:40;;;;;;;13.27;2.60;;;10.90;69.60;;;9.50;63.31;99615.81;5043042;28;20045;-86
2021/03/12 11:06:07;;;;;;;20.27;2.60;;;10.80;69.90;;;9.56;62.75;99612.31;5026095;28;20100;-87
2021/03/12 11:08:35;;;;;;;15.77;2.90;;;10.70;70.20;;;9.56;62.15;99598.75;5026164;28;20099;-87
2021/03/12 11:11:05;;;;;;;13.35;2.60;;;10.70;70.10;;;9.46;61.39;99606.38;5027896;28;20045;-87
2021/03/12 11:13:32;;;;;;;25.00;3.60;;;10.70;69.20;;;9.48;62.04;99609.75;5026164;28;20060;-87
2021/03/12 11:15:59;;;;;;;20.85;2.90;;;10.60;70.10;;;9.49;62.08;99604.13;5026239;28;20158;-87
2021/03/12 11:18:29;;;;;;;19.38;3.67;;;10.60;70.40;;;9.56;63.27;99593.31;5025916;28;20057;-87
2021/03/12 11:20:58;;;;;;;20.45;3.03;;;10.60;71.10;;;9.53;63.62;99590.97;5026169;28;20065;-87
2021/03/12 11:23:25;;;;;;;16.95;3.85;;;10.50;72.10;;;9.55;64.65;99583.47;5027305;28;20056;-87
2021/03/12 11:25:52;;;;;;;16.42;3.38;;;10.60;72.50;;;9.57;64.88;99582.22;5026480;28;20061;-88